Time;durP1;ratioP1;P1;durP2;ratioP2;P2;SDS_P1;SDS_P2;PMS_P1;PMS_P2;Temp;Humidity;BMP_temperature;BMP_pressure;BME280_temperature;BME280_humidity;BME280_pressure;Samples;Min_cycle;Max_cycle;Signal;HPM_P1;HPM_P2
2022/11/07 00:00:57;;;;;;;;;;;;;;;17.25;51.35;99041.22;4991228;28;19930;-73
2022/11/07 00:03:22;;;;;;;;;;;;;;;17.24;51.38;99043.03;4990991;28;19922;-74
2022/11/07 00:05:48;;;;;;;;;;;;;;;17.26;51.41;99042.88;4976409;28;19925;-73
2022/11/07 00:08:13;;;;;;;;;;;;;;;17.26;51.38;99043.72;4976451;28;19918;-73
2022/11/07 00:10:38;;;;;;;;;;;;;;;17.27;51.36;99048.00;4975946;28;19949;-73
2022/11/07 00:13:03;;;;;;;;;;;;;;;17.28;51.22;99049.66;4958677;28;20012;-73
2022/11/07 00:15:29;;;;;;;;;;;;;;;17.27;51.46;99050.66;4991140;28;19918;-73
2022/11/07 00:17:54;;;;;;;;;;;;;;;17.27;51.33;99050.66;4974750;28;19918;-73
2022/11/07 00:20:19;;;;;;;;;;;;;;;17.27;51.58;99049.84;4974589;28;19918;-73
2022/11/07 00:22:45;;;;;;;;;;;;;;;17.27;51.69;99044.56;4990977;28;19918;-73
2022/11/07 00:25:10;;;;;;;;;;;;;;;17.27;51.88;99044.56;4976163;28;19918;-73
2022/11/07 00:27:35;;;;;;;;;;;;;;;17.28;51.63;99049.66;4975651;28;19918;-73
2022/11/07 00:30:00;;;;;;;;;;;;;;;17.29;51.75;99053.13;4975825;28;19926;-73
2022/11/07 00:32:26;;;;;;;;;;;;;;;17.28;51.99;99051.47;4991180;28;20282;-74
2022/11/07 00:34:51;;;;;;;;;;;;;;;17.29;52.05;99053.97;4976305;28;20405;-74
2022/11/07 00:37:16;;;;;;;;;;;;;;;17.28;52.20;99049.66;4975581;28;19918;-73
2022/11/07 00:39:42;;;;;;;;;;;;;;;17.29;52.26;99053.13;4975295;28;19969;-73
2022/11/07 00:42:07;;;;;;;;;;;;;;;17.28;52.47;99052.28;4975582;28;19925;-74
2022/11/07 00:44:32;;;;;;;;;;;;;;;17.27;52.65;99048.00;4957870;28;19925;-74
2022/11/07 00:46:57;;;;;;;;;;;;;;;17.27;52.52;99057.75;4975525;28;19918;-74
2022/11/07 00:49:23;;;;;;;;;;;;;;;17.27;52.58;99055.13;4957810;28;20277;-74
2022/11/07 00:51:48;;;;;;;;;;;;;;;17.26;52.74;99042.88;4975169;28;20405;-74
2022/11/07 00:54:13;;;;;;;;;;;;;;;17.26;52.81;99048.16;4989912;28;19988;-75
2022/11/07 00:56:39;;;;;;;;;;;;;;;17.27;52.90;99055.13;4975733;28;19924;-75
2022/11/07 00:59:04;;;;;;;;;;;;;;;17.28;52.75;99059.38;4990039;28;19918;-75
2022/11/07 01:01:30;;;;;;;;;;;;;;;17.25;52.88;99057.91;4975320;28;20340;-75
2022/11/07 01:06:40;;;;;;;;;;;;;;;17.25;52.85;99047.34;4988406;28;20258;-75
2022/11/07 01:09:06;;;;;;;;;;;;;;;17.27;52.95;99049.84;4990129;28;19918;-75
2022/11/07 01:11:31;;;;;;;;;;;;;;;17.26;52.94;99058.72;4974968;28;19918;-75
2022/11/07 01:13:57;;;;;;;;;;;;;;;17.25;53.07;99049.13;4990056;28;19918;-75
2022/11/07 01:16:22;;;;;;;;;;;;;;;17.25;53.12;99047.34;4989069;28;19929;-75
2022/11/07 01:18:47;;;;;;;;;;;;;;;17.26;53.06;99045.53;4989924;28;19918;-75
2022/11/07 01:21:12;;;;;;;;;;;;;;;17.25;53.09;99042.06;4990143;28;19929;-75
2022/11/07 01:23:38;;;;;;;;;;;;;;;17.25;52.91;99041.22;4973522;28;19918;-75
2022/11/07 01:26:08;;;;;;;;;;;;;;;17.26;53.07;99040.25;4989790;28;19922;-75
2022/11/07 01:28:33;;;;;;;;;;;;;;;17.26;53.12;99048.97;4989612;28;20015;-75
2022/11/07 01:31:01;;;;;;;;;;;;;;;17.26;53.08;99048.97;4975099;28;19983;-75
2022/11/07 01:33:26;;;;;;;;;;;;;;;17.26;53.09;99050.81;4974672;28;20396;-74
2022/11/07 01:35:51;;;;;;;;;;;;;;;17.26;52.86;99056.91;4974900;28;19922;-75
2022/11/07 01:38:17;;;;;;;;;;;;;;;17.26;52.85;99048.97;4974497;28;19969;-73
2022/11/07 01:43:44;;;;;;;;;;;;;;;17.28;52.79;99057.56;4987476;28;19972;-75
2022/11/07 01:46:10;;;;;;;;;;;;;;;17.28;52.92;99051.47;4990095;28;19929;-75
2022/11/07 01:48:35;;;;;;;;;;;;;;;17.27;53.08;99048.00;4992684;28;20308;-74
2022/11/07 01:51:00;;;;;;;;;;;;;;;17.26;52.94;99058.72;4975690;28;19925;-75
2022/11/07 01:53:26;;;;;;;;;;;;;;;17.27;52.97;99055.94;4992637;28;19965;-75
2022/11/07 01:55:51;;;;;;;;;;;;;;;17.25;52.90;99052.63;4992466;28;19964;-75
2022/11/07 01:58:16;;;;;;;;;;;;;;;17.27;53.00;99047.19;4993646;28;20294;-75
2022/11/07 02:00:41;;;;;;;;;;;;;;;17.26;52.91;99046.34;4992392;28;19933;-75
2022/11/07 02:03:08;;;;;;;;;;;;;;;17.25;53.01;99051.78;4975784;28;19922;-75
2022/11/07 02:05:34;;;;;;;;;;;;;;;17.25;53.14;99054.41;4992395;28;20373;-75
2022/11/07 02:07:59;;;;;;;;;;;;;;;17.24;53.18;99044.84;4976112;28;19918;-74
2022/11/07 02:10:25;;;;;;;;;;;;;;;17.23;52.93;99046.66;4992684;28;19918;-74
2022/11/07 02:12:50;;;;;;;;;;;;;;;17.23;52.84;99051.09;4992263;28;19925;-72
2022/11/07 02:15:16;;;;;;;;;;;;;;;17.22;52.95;99054.72;4976168;28;20394;-74
2022/11/07 02:17:41;;;;;;;;;;;;;;;17.20;53.02;99054.88;4992042;28;19918;-74
2022/11/07 02:20:06;;;;;;;;;;;;;;;17.21;52.90;99055.72;4992636;28;20312;-74
2022/11/07 02:22:35;;;;;;;;;;;;;;;17.20;52.71;99049.59;4993426;28;20277;-74
2022/11/07 02:25:02;;;;;;;;;;;;;;;17.19;52.67;99047.94;4992283;28;19918;-74
2022/11/07 02:27:27;;;;;;;;;;;;;;;17.18;52.64;99052.38;4976551;28;20301;-74
2022/11/07 02:30:03;;;;;;;;;;;;;;;17.18;52.56;99048.94;4979435;28;20369;-74
2022/11/07 02:32:29;;;;;;;;;;;;;;;17.16;52.62;99057.00;4997703;28;19940;-74
2022/11/07 02:34:57;;;;;;;;;;;;;;;17.15;52.70;99052.69;4997402;28;20373;-75
2022/11/07 02:37:24;;;;;;;;;;;;;;;17.15;52.56;99063.22;4997391;28;20016;-75
2022/11/07 02:39:49;;;;;;;;;;;;;;;17.14;52.53;99061.59;4996678;28;19973;-75
2022/11/07 02:42:14;;;;;;;;;;;;;;;17.13;52.80;99067.84;4979495;28;19922;-75
2022/11/07 02:44:40;;;;;;;;;;;;;;;17.12;52.77;99060.06;4995772;28;20454;-74
2022/11/07 02:47:05;;;;;;;;;;;;;;;17.09;52.61;99068.28;4979624;28;19918;-75
2022/11/07 02:49:30;;;;;;;;;;;;;;;17.07;52.62;99064.97;4996996;28;19957;-75
2022/11/07 02:51:55;;;;;;;;;;;;;;;17.04;52.68;99062.66;4996908;28;19928;-74
2022/11/07 02:54:21;;;;;;;;;;;;;;;16.99;52.66;99069.19;4996785;28;19943;-75
2022/11/07 02:56:46;;;;;;;;;;;;;;;16.96;52.75;99069.47;4996826;28;19918;-76
2022/11/07 02:59:11;;;;;;;;;;;;;;;16.92;52.79;99068.16;4996628;28;19922;-75
2022/11/07 03:01:37;;;;;;;;;;;;;;;16.87;52.77;99069.56;4995920;28;19922;-75
2022/11/07 03:04:02;;;;;;;;;;;;;;;16.83;52.78;99080.38;4979224;28;19922;-75
2022/11/07 03:06:27;;;;;;;;;;;;;;;16.79;52.66;99079.03;4995632;28;19925;-75
2022/11/07 03:08:53;;;;;;;;;;;;;;;16.75;52.65;99080.28;4996783;28;19918;-75
2022/11/07 03:11:18;;;;;;;;;;;;;;;16.72;52.82;99075.31;4996481;28;19918;-75
2022/11/07 03:13:44;;;;;;;;;;;;;;;16.69;52.65;99074.78;4978147;28;19921;-75
2022/11/07 03:16:09;;;;;;;;;;;;;;;16.67;52.90;99084.63;4996933;28;20356;-75
2022/11/07 03:18:35;;;;;;;;;;;;;;;16.60;52.77;99084.41;4995300;28;19922;-75
2022/11/07 03:21:00;;;;;;;;;;;;;;;16.57;52.85;99088.16;4994848;28;19918;-74
2022/11/07 03:23:25;;;;;;;;;;;;;;;16.55;52.84;99087.47;4994884;28;19917;-75
2022/11/07 03:25:51;;;;;;;;;;;;;;;16.51;52.74;99083.47;4995149;28;19921;-75
2022/11/07 03:28:16;;;;;;;;;;;;;;;16.48;52.69;99089.03;4995066;28;19918;-74
2022/11/07 03:30:41;;;;;;;;;;;;;;;16.44;52.92;99082.41;4996335;28;19921;-74
2022/11/07 03:33:06;;;;;;;;;;;;;;;16.40;52.97;99084.50;4995422;28;19925;-74
2022/11/07 03:35:32;;;;;;;;;;;;;;;16.35;52.98;99092.03;4995989;28;19925;-75
2022/11/07 03:37:57;;;;;;;;;;;;;;;16.34;52.77;99087.72;4995042;28;20033;-75
2022/11/07 03:40:22;;;;;;;;;;;;;;;16.29;52.83;99084.69;4993721;28;19922;-75
2022/11/07 03:42:48;;;;;;;;;;;;;;;16.25;52.89;99076.22;4994879;28;19918;-77
2022/11/07 03:45:13;;;;;;;;;;;;;;;16.21;53.06;99074.06;4994849;28;19922;-77
2022/11/07 03:47:39;;;;;;;;;;;;;;;16.18;53.06;99084.88;4996057;28;19917;-76
2022/11/07 03:50:05;;;;;;;;;;;;;;;16.16;53.09;99082.41;4996167;28;20004;-77
2022/11/07 03:52:30;;;;;;;;;;;;;;;16.14;53.06;99083.50;4978346;28;19961;-77
2022/11/07 03:54:55;;;;;;;;;;;;;;;16.09;53.16;99070.75;4994477;28;19929;-77
2022/11/07 03:57:20;;;;;;;;;;;;;;;16.04;53.14;99078.28;4994384;28;19924;-77
2022/11/07 03:59:46;;;;;;;;;;;;;;;16.03;52.95;99079.22;4977568;28;20372;-77
2022/11/07 04:02:11;;;;;;;;;;;;;;;15.98;53.07;99084.94;4978150;28;19949;-77
2022/11/07 04:04:36;;;;;;;;;;;;;;;15.95;53.17;99084.41;4994428;28;19918;-77
2022/11/07 04:07:02;;;;;;;;;;;;;;;15.95;53.15;99084.41;4994612;28;20021;-77
2022/11/07 04:09:27;;;;;;;;;;;;;;;15.91;53.16;99089.94;4994125;28;19918;-77
2022/11/07 04:17:20;;;;;;;;;;;;;;;15.86;53.25;99088.69;4995401;28;19924;-77
2022/11/07 04:19:46;;;;;;;;;;;;;;;15.85;53.18;99097.59;4995360;28;19918;-76
2022/11/07 04:22:11;;;;;;;;;;;;;;;15.86;53.30;99093.97;4995296;28;19953;-75
2022/11/07 04:24:37;;;;;;;;;;;;;;;15.86;53.24;99092.19;4994125;28;19918;-75
2022/11/07 04:29:46;;;;;;;;;;;;;;;15.85;53.16;99097.59;4994117;28;19968;-76
2022/11/07 04:32:11;;;;;;;;;;;;;;;15.86;53.14;99099.22;4993923;28;20336;-78
2022/11/07 04:34:36;;;;;;;;;;;;;;;15.83;53.00;99103.00;4977054;28;19918;-74
2022/11/07 04:37:02;;;;;;;;;;;;;;;15.82;53.14;99105.75;4994380;28;19922;-72
2022/11/07 04:39:27;;;;;;;;;;;;;;;15.97;58.88;99099.09;4976790;28;19930;-72
2022/11/07 04:41:53;;;;;;;;;;;;;;;15.99;56.35;99109.47;4976830;28;19918;-75
2022/11/07 04:44:18;;;;;;;;;;;;;;;15.97;55.62;99109.63;4977537;28;19918;-73
2022/11/07 04:46:43;;;;;;;;;;;;;;;15.91;54.97;99108.38;4991888;28;19918;-73
2022/11/07 04:49:09;;;;;;;;;;;;;;;15.89;54.86;99112.97;4993834;28;19921;-74
2022/11/07 04:51:39;;;;;;;;;;;;;;;15.84;54.46;99104.63;4993425;28;19918;-71
2022/11/07 04:54:05;;;;;;;;;;;;;;;15.81;54.32;99110.19;5009993;28;19993;-72
2022/11/07 04:56:30;;;;;;;;;;;;;;;15.76;54.23;99117.66;4992993;28;19924;-72
2022/11/07 04:58:55;;;;;;;;;;;;;;;15.72;54.14;99117.09;5009861;28;19921;-71
2022/11/07 05:01:21;;;;;;;;;;;;;;;15.72;53.98;99119.72;4992880;28;20009;-75
2022/11/07 05:03:46;;;;;;;;;;;;;;;15.71;53.84;99118.06;4992978;28;19928;-73
2022/11/07 05:06:11;;;;;;;;;;;;;;;15.69;53.63;99112.13;4994689;28;19922;-73
2022/11/07 05:08:37;;;;;;;;;;;;;;;15.67;53.59;99121.97;5009469;28;20485;-76
2022/11/07 05:11:02;;;;;;;;;;;;;;;15.67;53.63;99119.34;4993340;28;19930;-75
2022/11/07 05:13:27;;;;;;;;;;;;;;;15.69;53.43;99120.00;4993110;28;20308;-76
2022/11/07 05:15:53;;;;;;;;;;;;;;;15.70;53.23;99124.31;4994162;28;20006;-75
2022/11/07 05:18:20;;;;;;;;;;;;;;;15.72;53.26;99129.44;5009516;28;19918;-76
2022/11/07 05:20:45;;;;;;;;;;;;;;;15.72;53.15;99130.25;4993964;28;19922;-75
2022/11/07 05:23:20;;;;;;;;;;;;;;;15.74;53.00;99136.22;5009511;28;19976;-75
2022/11/07 05:25:47;;;;;;;;;;;;;;;15.74;52.95;99133.56;5008396;28;19918;-74
2022/11/07 05:28:14;;;;;;;;;;;;;;;15.78;52.82;99138.59;5009208;28;19918;-74
2022/11/07 05:30:39;;;;;;;;;;;;;;;15.82;52.55;99145.25;4992664;28;19984;-75
2022/11/07 05:33:05;;;;;;;;;;;;;;;15.85;52.57;99148.41;4993891;28;19984;-75
2022/11/07 05:35:30;;;;;;;;;;;;;;;15.93;52.35;99149.53;5009255;28;19921;-74
2022/11/07 05:37:55;;;;;;;;;;;;;;;16.00;52.04;99154.09;4993098;28;19926;-74
2022/11/07 05:40:21;;;;;;;;;;;;;;;16.16;51.75;99152.66;4974379;28;19930;-75
2022/11/07 05:42:46;;;;;;;;;;;;;;;16.32;51.25;99157.31;4974482;28;19918;-74
2022/11/07 05:45:11;;;;;;;;;;;;;;;16.53;50.82;99157.13;4985315;28;19933;-75
2022/11/07 05:47:37;;;;;;;;;;;;;;;16.75;50.60;99167.28;4986714;28;19921;-77
2022/11/07 05:50:02;;;;;;;;;;;;;;;16.95;50.08;99169.84;4974774;28;19929;-75
2022/11/07 05:52:27;;;;;;;;;;;;;;;17.19;49.82;99169.31;4993590;28;20379;-75
2022/11/07 05:54:53;;;;;;;;;;;;;;;17.50;49.02;99180.31;4976293;28;19922;-74
2022/11/07 05:57:18;;;;;;;;;;;;;;;17.66;48.75;99182.28;4993650;28;19918;-74
2022/11/07 05:59:43;;;;;;;;;;;;;;;17.62;48.70;99182.75;4993352;28;19918;-73
2022/11/07 06:02:08;;;;;;;;;;;;;;;17.73;50.18;99185.16;4993202;28;20002;-76
2022/11/07 06:04:34;;;;;;;;;;;;;;;17.93;50.37;99192.91;4993701;28;19925;-70
2022/11/07 06:06:59;;;;;;;;;;;;;;;17.95;49.87;99197.06;4993007;28;19918;-71
2022/11/07 06:09:24;;;;;;;;;;;;;;;17.95;51.52;99201.50;4975947;28;20072;-70
2022/11/07 06:11:50;;;;;;;;;;;;;;;18.23;54.71;99200.41;4994423;28;19918;-70
2022/11/07 06:14:15;;;;;;;;;;;;;;;18.37;54.44;99209.56;4980922;28;19918;-73
2022/11/07 06:16:40;;;;;;;;;;;;;;;18.62;53.61;99209.72;4976221;28;19918;-72
2022/11/07 06:19:06;;;;;;;;;;;;;;;18.76;53.03;99214.41;4975499;28;19922;-71
2022/11/07 06:21:31;;;;;;;;;;;;;;;18.85;51.79;99215.31;4992341;28;20435;-70
2022/11/07 06:23:56;;;;;;;;;;;;;;;18.88;51.07;99217.66;4993733;28;20423;-71
2022/11/07 06:26:22;;;;;;;;;;;;;;;18.89;50.44;99232.53;4993468;28;20009;-72
2022/11/07 06:28:47;;;;;;;;;;;;;;;18.91;50.08;99229.72;4975512;28;20392;-72
2022/11/07 06:31:12;;;;;;;;;;;;;;;18.92;49.49;99234.84;4993377;28;19921;-71
2022/11/07 06:33:38;;;;;;;;;;;;;;;18.93;48.99;99227.75;4990802;28;19921;-72
2022/11/07 06:36:07;;;;;;;;;;;;;;;18.91;49.07;99230.56;4975632;28;19941;-70
2022/11/07 06:38:32;;;;;;;;;;;;;;;18.94;48.89;99227.59;4975451;28;19965;-72
2022/11/07 06:41:07;;;;;;;;;;;;;;;20.20;46.40;99234.63;4976242;28;20404;-71
2022/11/07 06:43:33;;;;;;;;;;;;;;;19.93;46.62;99235.78;4975889;28;19921;-72
2022/11/07 06:46:00;;;;;;;;;;;;;;;21.21;45.00;99240.34;4993163;28;19925;-71
2022/11/07 06:48:25;;;;;;;;;;;;;;;21.94;44.29;99234.78;4976215;28;19917;-71
2022/11/07 06:51:00;;;;;;;;;;;;;;;22.49;43.88;99241.59;4959823;28;19941;-72
2022/11/07 06:53:25;;;;;;;;;;;;;;;22.91;43.97;99248.16;4975939;28;20021;-72
2022/11/07 06:55:51;;;;;;;;;;;;;;;23.34;43.15;99244.81;4992661;28;19957;-70
2022/11/07 06:58:16;;;;;;;;;;;;;;;23.75;42.50;99249.53;4974885;28;19918;-71
2022/11/07 07:00:41;;;;;;;;;;;;;;;24.15;41.66;99251.78;4992851;28;19933;-69
2022/11/07 07:03:06;;;;;;;;;;;;;;;24.52;40.62;99247.13;4993378;28;19922;-71
2022/11/07 07:05:32;;;;;;;;;;;;;;;24.92;39.62;99248.22;4975526;28;19929;-72
2022/11/07 07:07:58;;;;;;;;;;;;;;;25.28;38.90;99255.16;4991751;28;20352;-71
2022/11/07 07:10:23;;;;;;;;;;;;;;;25.70;37.31;99254.28;4993313;28;19918;-71
2022/11/07 07:12:49;;;;;;;;;;;;;;;26.00;36.89;99258.22;4991831;28;19934;-72
2022/11/07 07:15:14;;;;;;;;;;;;;;;26.11;35.71;99259.47;4995129;28;19918;-71
2022/11/07 07:17:39;;;;;;;;;;;;;;;25.81;34.91;99256.34;4996846;28;19925;-70
2022/11/07 07:20:05;;;;;;;;;;;;;;;25.44;34.88;99259.34;4996879;28;19918;-69
2022/11/07 07:22:31;;;;;;;;;;;;;;;25.10;35.03;99255.69;4995391;28;19922;-71
2022/11/07 07:24:56;;;;;;;;;;;;;;;24.73;34.59;99265.78;4995678;28;19929;-70
2022/11/07 07:27:21;;;;;;;;;;;;;;;24.35;34.54;99255.44;4995268;28;19928;-71
2022/11/07 07:29:46;;;;;;;;;;;;;;;23.96;35.14;99264.75;4994970;28;20360;-71
2022/11/07 07:32:12;;;;;;;;;;;;;;;23.61;35.53;99264.56;4995083;28;19917;-70
2022/11/07 07:34:37;;;;;;;;;;;;;;;23.32;35.83;99261.97;4995574;28;19980;-71
2022/11/07 07:37:02;;;;;;;;;;;;;;;23.05;36.50;99270.41;4994990;28;19921;-71
2022/11/07 07:39:28;;;;;;;;;;;;;;;22.81;36.81;99276.03;4978037;28;19928;-70
2022/11/07 07:41:53;;;;;;;;;;;;;;;22.56;36.99;99263.81;4995146;28;19924;-70
2022/11/07 07:44:18;;;;;;;;;;;;;;;22.35;37.59;99263.69;4991366;28;19928;-70
2022/11/07 07:46:44;;;;;;;;;;;;;;;22.13;37.68;99262.69;4976642;28;19997;-71
2022/11/07 07:49:09;;;;;;;;;;;;;;;21.95;38.03;99268.28;4991553;28;20013;-72
2022/11/07 07:51:34;;;;;;;;;;;;;;;21.78;38.18;99268.41;4976919;28;19922;-70
2022/11/07 07:54:00;;;;;;;;;;;;;;;21.65;38.32;99268.19;4958854;28;19919;-70
2022/11/07 07:56:25;;;;;;;;;;;;;;;21.52;38.36;99265.25;4991600;28;20357;-72
2022/11/07 07:58:51;;;;;;;;;;;;;;;21.43;38.90;99262.63;4976371;28;20389;-72
2022/11/07 08:01:16;;;;;;;;;;;;;;;21.40;39.09;99259.50;4976855;28;20401;-70
2022/11/07 08:03:41;;;;;;;;;;;;;;;21.40;38.90;99259.50;4991328;28;19926;-70
2022/11/07 08:06:08;;;;;;;;;;;;;;;21.63;38.63;99271.03;4958892;28;19926;-70
2022/11/07 08:08:33;;;;;;;;;;;;;;;21.74;39.02;99264.44;4976255;28;19918;-70
2022/11/07 08:11:02;;;;;;;;;;;;;;;21.80;39.27;99270.91;4991361;28;19926;-70
2022/11/07 08:13:28;;;;;;;;;;;;;;;21.89;38.56;99272.50;4958671;28;19925;-71
2022/11/07 08:15:53;;;;;;;;;;;;;;;21.99;38.66;99269.59;4974772;28;20316;-72
2022/11/07 08:18:20;;;;;;;;;;;;;;;22.30;38.52;99271.38;4991181;28;19961;-73
2022/11/07 08:20:46;;;;;;;;;;;;;;;22.51;38.21;99273.34;4974492;28;19919;-70
2022/11/07 08:23:11;;;;;;;;;;;;;;;22.74;37.91;99270.63;4974755;28;19922;-71
2022/11/07 08:25:37;;;;;;;;;;;;;;;23.37;37.08;99270.22;4990629;28;20008;-72
2022/11/07 08:28:03;;;;;;;;;;;;;;;23.84;36.99;99266.25;4958377;28;19929;-71
2022/11/07 08:30:30;;;;;;;;;;;;;;;24.27;36.06;99265.41;4991139;28;19992;-71
2022/11/07 08:32:57;;;;;;;;;;;;;;;24.57;35.83;99266.06;4975795;28;19918;-70
2022/11/07 08:35:23;;;;;;;;;;;;;;;25.12;35.07;99263.50;4974542;28;19961;-69
2022/11/07 08:37:49;;;;;;;;;;;;;;;25.79;33.64;99259.22;4990704;28;19953;-71
2022/11/07 08:40:14;;;;;;;;;;;;;;;26.40;32.99;99256.59;4990348;28;19976;-72
2022/11/07 08:42:40;;;;;;;;;;;;;;;26.86;31.88;99261.06;4990589;28;19918;-70
2022/11/07 08:45:05;;;;;;;;;;;;;;;27.38;31.04;99259.22;4975705;28;19918;-71
2022/11/07 08:47:31;;;;;;;;;;;;;;;27.91;30.06;99259.94;4975755;28;19980;-71
2022/11/07 08:49:56;;;;;;;;;;;;;;;28.50;28.72;99260.53;4958073;28;20389;-71
2022/11/07 08:52:21;;;;;;;;;;;;;;;29.05;28.40;99263.25;4990371;28;19964;-71
2022/11/07 08:54:47;;;;;;;;;;;;;;;29.55;27.00;99261.41;4975403;28;19918;-71
2022/11/07 08:57:12;;;;;;;;;;;;;;;30.11;26.16;99265.56;4975280;28;19999;-71
2022/11/07 08:59:37;;;;;;;;;;;;;;;30.89;25.09;99262.75;4975384;28;19961;-71
2022/11/07 09:02:02;;;;;;;;;;;;;;;30.81;24.53;99253.16;4975061;28;20005;-71
2022/11/07 09:04:28;;;;;;;;;;;;;;;31.50;23.61;99255.09;4990252;28;19918;-71
2022/11/07 09:06:55;;;;;;;;;;;;;;;30.47;24.33;99261.06;4957757;28;20329;-71
2022/11/07 09:09:20;;;;;;;;;;;;;;;29.84;24.75;99253.56;4990158;28;20384;-70
2022/11/07 09:11:45;;;;;;;;;;;;;;;29.63;24.89;99246.81;4975050;28;19918;-70
2022/11/07 09:14:10;;;;;;;;;;;;;;;30.08;24.38;99243.69;4957309;28;19926;-71
2022/11/07 09:16:36;;;;;;;;;;;;;;;29.74;24.68;99241.47;4990247;28;19992;-70
2022/11/07 09:19:01;;;;;;;;;;;;;;;29.45;25.07;99239.63;4974840;28;19953;-70
2022/11/07 09:21:26;;;;;;;;;;;;;;;29.93;24.63;99244.91;4974987;28;20001;-70
2022/11/07 09:23:52;;;;;;;;;;;;;;;30.24;24.46;99240.28;4974958;28;20005;-72
2022/11/07 09:26:17;;;;;;;;;;;;;;;30.54;24.29;99239.38;4974874;28;19918;-71
2022/11/07 09:28:42;;;;;;;;;;;;;;;30.93;23.68;99245.06;4989727;28;19918;-71
2022/11/07 09:31:08;;;;;;;;;;;;;;;31.30;23.37;99235.84;4973563;28;20017;-72
2022/11/07 09:33:33;;;;;;;;;;;;;;;31.58;22.96;99234.19;4957337;28;20381;-71
2022/11/07 09:35:59;;;;;;;;;;;;;;;31.80;22.70;99237.84;4989897;28;20496;-69
2022/11/07 09:38:24;;;;;;;;;;;;;;;31.86;22.36;99226.03;4973756;28;19922;-70
2022/11/07 09:41:00;;;;;;;;;;;;;;;31.89;22.44;99225.53;4989647;28;19940;-71
2022/11/07 09:43:25;;;;;;;;;;;;;;;31.95;22.34;99228.34;4989829;28;19914;-72
2022/11/07 09:45:55;;;;;;;;;;;;;;;32.00;22.30;99217.63;4974704;28;19925;-70
2022/11/07 09:48:21;;;;;;;;;;;;;;;32.00;22.13;99218.44;4989444;28;19968;-70
2022/11/07 09:50:48;;;;;;;;;;;;;;;32.02;22.06;99218.19;4989180;28;19918;-71
2022/11/07 09:53:25;;;;;;;;;;;;;;;31.98;22.09;99211.66;4974320;28;19918;-71
2022/11/07 09:55:50;;;;;;;;;;;;;;;31.97;21.88;99216.22;4989575;28;20482;-71
2022/11/07 09:58:39;;;;;;;;;;;;;;;31.86;22.05;99215.25;4989330;28;19918;-71
2022/11/07 10:01:05;;;;;;;;;;;;;;;31.81;22.17;99214.34;4968584;28;19929;-71
2022/11/07 10:03:34;;;;;;;;;;;;;;;31.74;22.02;99211.81;4989274;28;19945;-71
2022/11/07 10:05:59;;;;;;;;;;;;;;;31.70;22.40;99211.47;4989132;28;19922;-70
2022/11/07 10:08:26;;;;;;;;;;;;;;;31.55;22.46;99209.34;4974131;28;20001;-71
2022/11/07 10:11:02;;;;;;;;;;;;;;;31.47;22.42;99212.41;4972376;28;20107;-71
2022/11/07 10:13:40;;;;;;;;;;;;;;;31.36;22.59;99208.72;4972796;28;19922;-72
2022/11/07 10:16:14;;;;;;;;;;;;;;;31.30;22.67;99211.56;4989057;28;19918;-70
2022/11/07 10:18:42;;;;;;;;;;;;;;;31.18;22.50;99206.19;4972402;28;20400;-70
2022/11/07 10:21:20;;;;;;;;;;;;;;;31.06;23.22;99198.16;4973885;28;19918;-71
2022/11/07 10:23:52;;;;;;;;;;;;;;;30.86;23.44;99201.25;4972756;28;19926;-71
2022/11/07 10:26:18;;;;;;;;;;;;;;;30.80;22.95;99192.22;4974128;28;20021;-71
2022/11/07 10:28:44;;;;;;;;;;;;;;;30.65;23.61;99192.75;4989350;28;20489;-71
2022/11/07 10:31:09;;;;;;;;;;;;;;;30.55;23.50;99195.22;4988880;28;19925;-71
2022/11/07 10:33:42;;;;;;;;;;;;;;;30.46;23.46;99196.66;4988616;28;20365;-70
2022/11/07 10:36:14;;;;;;;;;;;;;;;30.38;23.69;99196.94;4989064;28;20457;-70
2022/11/07 10:38:39;;;;;;;;;;;;;;;30.27;23.61;99187.84;4988537;28;19929;-71
2022/11/07 10:41:10;;;;;;;;;;;;;;;30.19;23.48;99174.72;4972774;28;19922;-70
2022/11/07 10:43:36;;;;;;;;;;;;;;;29.99;23.75;99181.28;4972520;28;20392;-71
2022/11/07 10:46:02;;;;;;;;;;;;;;;29.87;24.18;99177.75;4972041;28;19919;-70
2022/11/07 10:48:31;;;;;;;;;;;;;;;29.69;24.22;99178.66;4989904;28;19918;-71
2022/11/07 10:50:57;;;;;;;;;;;;;;;29.50;24.44;99180.59;4992186;28;19984;-71
2022/11/07 10:53:23;;;;;;;;;;;;;;;29.32;24.73;99181.47;4960093;28;20393;-70
2022/11/07 10:55:49;;;;;;;;;;;;;;;29.22;24.92;99177.50;4992581;28;19918;-71
2022/11/07 10:58:24;;;;;;;;;;;;;;;28.89;25.35;99177.88;4992878;28;20448;-72
2022/11/07 11:00:56;;;;;;;;;;;;;;;28.83;25.79;99176.13;4976513;28;19922;-72
2022/11/07 11:03:26;;;;;;;;;;;;;;;28.73;25.74;99173.94;4977607;28;19972;-71
2022/11/07 11:05:51;;;;;;;;;;;;;;;28.57;26.01;99174.53;4992155;28;20401;-72
2022/11/07 11:08:17;;;;;;;;;;;;;;;28.48;26.02;99169.44;4977350;28;19918;-72
2022/11/07 11:10:42;;;;;;;;;;;;;;;28.32;26.53;99172.72;4977308;28;20305;-71
2022/11/07 11:13:27;;;;;;;;;;;;;;;28.22;26.60;99161.69;4992399;28;19976;-71
2022/11/07 11:15:52;;;;;;;;;;;;;;;28.13;26.65;99164.66;4992118;28;20381;-69
2022/11/07 11:18:17;;;;;;;;;;;;;;;27.98;27.01;99164.16;4975935;28;19925;-70
2022/11/07 11:20:53;;;;;;;;;;;;;;;27.86;27.08;99155.97;4992159;28;20489;-70
2022/11/07 11:23:20;;;;;;;;;;;;;;;27.74;27.27;99158.56;4992311;28;19921;-72
2022/11/07 11:25:45;;;;;;;;;;;;;;;27.60;27.49;99155.16;4994781;28;19925;-70
2022/11/07 11:28:17;;;;;;;;;;;;;;;27.45;27.85;99160.00;4996452;28;19925;-70
2022/11/07 11:30:42;;;;;;;;;;;;;;;27.30;28.12;99149.56;4995174;28;20316;-70
2022/11/07 11:33:11;;;;;;;;;;;;;;;27.18;28.23;99146.72;4995044;28;19918;-69
2022/11/07 11:35:41;;;;;;;;;;;;;;;27.07;28.06;99150.94;4995130;28;19974;-71
2022/11/07 11:38:09;;;;;;;;;;;;;;;26.91;28.55;99138.03;4978636;28;20382;-71
2022/11/07 11:40:35;;;;;;;;;;;;;;;26.82;28.53;99142.81;4994882;28;19918;-71
2022/11/07 11:43:06;;;;;;;;;;;;;;;26.68;28.72;99136.69;4978771;28;19961;-70
2022/11/07 11:45:38;;;;;;;;;;;;;;;26.59;28.71;99134.44;4995083;28;19918;-71
2022/11/07 11:48:11;;;;;;;;;;;;;;;26.42;29.26;99134.06;4996081;28;19952;-72
2022/11/07 11:50:47;;;;;;;;;;;;;;;26.25;29.39;99125.69;4995406;28;19917;-70
2022/11/07 11:53:22;;;;;;;;;;;;;;;26.08;29.50;99126.13;4994671;28;19922;-70
2022/11/07 11:55:54;;;;;;;;;;;;;;;25.93;29.55;99125.50;4994896;28;20361;-72
2022/11/07 11:58:29;;;;;;;;;;;;;;;25.77;29.93;99127.56;4995859;28;19957;-72
2022/11/07 12:00:58;;;;;;;;;;;;;;;25.63;30.18;99125.91;4994455;28;19964;-70
2022/11/07 12:03:42;;;;;;;;;;;;;;;25.50;30.25;99120.59;4994612;28;19994;-72
2022/11/07 12:06:10;;;;;;;;;;;;;;;25.28;30.65;99118.91;4994516;28;19945;-72
2022/11/07 12:08:55;;;;;;;;;;;;;;;25.15;30.62;99118.84;4994588;28;20009;-71
2022/11/07 12:11:32;;;;;;;;;;;;;;;25.00;30.84;99113.69;4994757;28;19926;-70
2022/11/07 12:14:04;;;;;;;;;;;;;;;24.86;31.38;99112.84;4994640;28;20390;-70
2022/11/07 12:16:32;;;;;;;;;;;;;;;24.73;31.49;99104.75;4995611;28;19964;-72
2022/11/07 12:19:00;;;;;;;;;;;;;;;24.64;31.55;99109.47;4994473;28;19997;-71
2022/11/07 12:21:32;;;;;;;;;;;;;;;24.51;31.65;99102.19;4995161;28;19918;-69
2022/11/07 12:24:12;;;;;;;;;;;;;;;24.40;31.96;99105.44;4994622;28;19965;-70
2022/11/07 12:26:37;;;;;;;;;;;;;;;24.32;32.12;99108.25;4994063;28;19917;-71
2022/11/07 12:29:06;;;;;;;;;;;;;;;24.22;32.24;99107.78;4995643;28;19925;-70
2022/11/07 12:31:41;;;;;;;;;;;;;;;24.13;32.37;99097.28;4995581;28;20457;-70
2022/11/07 12:34:12;;;;;;;;;;;;;;;24.03;32.50;99094.94;4993716;28;19924;-69
2022/11/07 12:36:53;;;;;;;;;;;;;;;23.87;32.67;99108.59;4994612;28;19918;-70
2022/11/07 12:39:27;;;;;;;;;;;;;;;23.61;33.17;99103.84;4980175;28;19977;-71
2022/11/07 12:41:56;;;;;;;;;;;;;;;23.54;33.45;99101.13;4971216;28;19922;-72
2022/11/07 12:44:22;;;;;;;;;;;;;;;23.47;33.31;99102.94;4956261;29;20009;-71
2022/11/07 12:46:51;;;;;;;;;;;;;;;23.36;33.72;99100.78;4956820;29;20017;-71
2022/11/07 12:49:19;;;;;;;;;;;;;;;23.32;33.71;99105.66;4971140;28;19918;-71
2022/11/07 12:51:47;;;;;;;;;;;;;;;23.26;33.78;99104.59;4956160;29;20001;-71
2022/11/07 12:54:15;;;;;;;;;;;;;;;23.24;33.73;99100.44;4956045;29;19926;-70
2022/11/07 12:56:41;;;;;;;;;;;;;;;23.21;34.15;99104.31;4970930;28;19919;-71
2022/11/07 12:59:25;;;;;;;;;;;;;;;23.17;33.99;99108.38;4970856;28;19925;-72